• Join FlightAware (Why Join?)
  • Login
  • US Flag 
04:31PM EDT


 

Airport Tracker/Info


-or-


 

Live Flight TrackerFlight Track Log ✈ FLG3429 ✈ 16-Jun-2013 ✈ KPSC - KMSP

Flight Track Log - Related Links

Times and Time Zones

All times are in EDT time to prevent confusion due to time zone crossing. See the FLG3429 flight status page for this flight to view local times or setup timezone preferences in your user account.

Time Position Orientation Groundspeed Altitude Reporting Facility
EDT Latitude Longitude Course Direction KTS MPH feet Rate Location/Type
04:18PM 46.3050 -119.1114 72° East 207 238 2,300  Level Seattle Center
04:19PM 46.3247 -119.0272 71° East 230 265 4,400 2,040 Climbing Seattle Center
04:20PM 46.4094 -118.4289 73° East  Level FlightAware Approximate
04:20PM 46.3442 -118.9261 74° East 255 293 6,600  Level Seattle Center
04:21PM 46.4472 -118.2547 72° East  Level FlightAware Approximate
04:21PM 46.3700 -118.8067 73° East 274 315 9,000  Level Seattle Center
04:22PM 46.4860 -118.0808 72° East  Level FlightAware Approximate
04:22PM 46.3933 -118.6892 74° East 300 345 10,900  Level Seattle Center
04:23PM 46.5244 -117.9071 72° East  Level FlightAware Approximate
04:23PM 46.4194 -118.5528 74° East 353 406 12,400  Level Seattle Center
04:24PM 46.4481 -118.4164 73° East 355 409 14,400 1,800 Climbing Seattle Center
04:25PM 46.4775 -118.2717 73° East 370 426 16,100 1,680 Climbing Seattle Center
04:26PM 46.5058 -118.1197 75° East 389 448 17,900 1,680 Climbing Seattle Center
04:27PM 46.5361 -117.9650 74° East 399 459 19,600 1,620 Climbing Seattle Center
04:28PM 46.5658 -117.8078 75° East 404 465 21,200 1,440 Climbing Seattle Center
04:29PM 46.5972 -117.6447 74° East 416 479 22,600 1,260 Climbing Seattle Center
04:30PM 46.6286 -117.4778 75° East 429 494 23,800 1,320 Climbing Seattle Center
04:31PM 46.6667 -117.2731 75° East 439 505 25,400 1,260 Climbing Seattle Center
04:32PM 46.7297 -117.1156 60° Northeast 456 525 26,500 1,140 Climbing Seattle Center
04:33PM 46.8039 -116.9725 53° Northeast 447 514 27,800 1,020 Climbing Seattle Center
04:34PM 46.8789 -116.8217 54° Northeast 461 531 28,600 960 Climbing Seattle Center
04:35PM 46.9533 -116.6714 54° Northeast 461 531 29,800 1,080 Climbing Seattle Center
04:36PM 47.0281 -116.5208 54° Northeast 460 529 30,800 900 Climbing Seattle Center
04:37PM 47.1042 -116.3700 53° Northeast 463 533 31,700 1,080 Climbing Seattle Center
04:38PM 47.1792 -116.2181 54° Northeast 465 535 33,100 1,140 Climbing Seattle Center
04:39PM 47.2669 -116.0381 54° Northeast 456 525 34,100 780 Climbing Seattle Center
04:40PM 47.3400 -115.8883 54° Northeast 454 522 34,700 420 Climbing Seattle Center
04:41PM 47.4133 -115.7364 54° Northeast 456 525 35,000 120 Climbing Seattle Center
04:42PM 47.4586 -115.5622 69° East 472 543 35,000  Level Seattle Center
04:43PM 47.4611 -115.3678 89° East 473 544 35,000 -60 Level Seattle Center
04:44PM 47.4636 -115.1714 89° East 479 551 34,900 -60 Descending Seattle Center
04:45PM 47.4656 -114.9753 89° East 480 552 34,900  Level Seattle Center
04:46PM 47.4686 -114.7433 89° East 476 548 35,000  Climbing Seattle Center
04:47PM 47.4694 -114.5492 90° East 476 548 35,000  Level Seattle Center
04:48PM 47.4719 -114.3556 89° East 477 549 35,000  Level Seattle Center
04:49PM 47.4722 -114.1614 90° East 477 549 35,000  Level Seattle Center
04:50PM 47.4731 -113.9661 90° East 479 551 35,000  Level Seattle Center
04:51PM 47.4731 -113.7711 90° East 479 551 35,000  Level Seattle Center
04:52PM 47.4733 -113.5347 90° East 484 557 35,000  Level Salt Lake Center
04:54PM 47.4719 -113.3367 91° East 486 559 35,000  Level Salt Lake Center
04:55PM 47.4722 -113.1389 90° East 485 558 35,000  Level Salt Lake Center
04:56PM 47.4706 -112.9103 91° East 488 562 35,000  Level Salt Lake Center
04:57PM 47.4683 -112.7103 91° East 489 563 35,000 -60 Level Salt Lake Center
04:58PM 47.4675 -112.5100 90° East 489 563 34,900  Descending Salt Lake Center
04:59PM 47.4647 -112.3131 91° East 484 557 35,000  Climbing Salt Lake Center
05:00PM 47.4622 -112.0811 91° East 476 548 35,000  Level Salt Lake Center
05:01PM 47.4592 -111.8894 91° East 471 542 35,000  Level Salt Lake Center
05:02PM 47.4558 -111.6972 91° East 471 542 35,000  Level Salt Lake Center
05:03PM 47.4517 -111.5069 92° East 470 541 35,000  Level Salt Lake Center
05:04PM 47.4475 -111.3164 92° East 474 545 35,000  Level Salt Lake Center
05:05PM 47.4397 -111.0881 93° East 476 548 35,000  Level Salt Lake Center
05:06PM 47.4339 -110.8961 93° East 474 545 35,000  Level Salt Lake Center
05:07PM 47.4281 -110.7036 92° East 474 545 35,000  Level Salt Lake Center
05:08PM 47.4206 -110.5092 93° East 476 548 35,000  Level Salt Lake Center
05:09PM 47.4114 -110.3172 94° East 474 545 35,000  Level Salt Lake Center
05:10PM 47.4053 -110.1250 93° East 472 543 35,000  Level Salt Lake Center
05:11PM 47.3950 -109.8972 94° East 467 537 35,000  Level Salt Lake Center
05:12PM 47.3864 -109.7044 94° East 471 542 35,000  Level Salt Lake Center
05:13PM 47.3772 -109.5100 94° East 475 547 35,000  Level Salt Lake Center
05:14PM 47.3678 -109.3147 94° East 480 552 35,000  Level Salt Lake Center
05:15PM 47.3589 -109.1158 94° East 486 559 35,000  Level Salt Lake Center
05:16PM 47.3483 -108.9150 94° East 491 565 35,000  Level Salt Lake Center
05:17PM 47.3378 -108.6733 94° East 496 571 35,000  Level Salt Lake Center
05:18PM 47.3261 -108.4753 95° East 490 564 35,000  Level Salt Lake Center
05:19PM 47.3142 -108.2758 95° East 491 565 35,000  Level Salt Lake Center
05:20PM 47.3031 -108.0728 95° East 497 572 35,000  Level Salt Lake Center
05:21PM 47.2894 -107.8472 95° East 496 571 35,000  Level Salt Lake Center
05:22PM 47.2767 -107.6522 95° East 499 574 35,000  Level Salt Lake Center
05:23PM 47.2622 -107.4244 95° East 500 575 35,000  Level Salt Lake Center
05:24PM 47.2486 -107.2283 96° East 501 577 35,000  Level Salt Lake Center
05:25PM 47.2336 -107.0000 95° East 502 578 35,000  Level Salt Lake Center
05:27PM 47.2189 -106.8044 96° East 503 579 35,000  Level Salt Lake Center
05:28PM 47.2056 -106.6069 96° East 506 582 35,000  Level Salt Lake Center
05:29PM 47.1886 -106.3764 96° East 507 583 35,000  Level Salt Lake Center
05:30PM 47.1725 -106.1769 97° East 503 579 35,000  Level Salt Lake Center
05:31PM 47.1575 -105.9800 96° East 492 566 35,000  Level Salt Lake Center
05:32PM 47.1411 -105.7828 97° East 490 564 35,000  Level Salt Lake Center
05:33PM 47.1253 -105.5864 97° East 488 562 35,000  Level Salt Lake Center
05:34PM 47.1064 -105.3531 97° East 485 558 35,000  Level Salt Lake Center
05:35PM 47.0892 -105.1569 97° East 486 559 35,000  Level Salt Lake Center
05:36PM 47.0717 -104.9611 97° East 486 559 35,000  Level Salt Lake Center
05:37PM 47.0550 -104.7644 97° East 490 564 35,000  Level Salt Lake Center
05:38PM 47.0367 -104.5672 98° East 490 564 35,000  Level Salt Lake Center
05:39PM 47.0186 -104.3689 98° East 493 567 35,000  Level Salt Lake Center
05:40PM 46.9964 -104.1311 98° East 494 568 35,000  Level Salt Lake Center
05:41PM 46.9778 -103.9317 98° East 495 570 35,000  Level Salt Lake Center
05:42PM 46.9592 -103.7325 98° East 498 573 35,000  Level Salt Lake Center
05:43PM 46.9392 -103.5317 98° East 500 575 35,000  Level Salt Lake Center
05:44PM 46.9189 -103.3319 98° East 501 577 35,000  Level Salt Lake Center
05:45PM 46.9006 -103.1336 98° East 501 577 35,000  Level Minneapolis Center
05:46PM 46.8758 -102.8919 98° East 505 581 35,000  Level Minneapolis Center
05:47PM 46.8614 -102.6892 96° East 504 580 35,000  Level Minneapolis Center
05:48PM 46.8644 -102.4864 89° East 502 578 35,000  Level Minneapolis Center
05:49PM 46.8669 -102.2822 89° East 505 581 35,000  Level Minneapolis Center
05:50PM 46.8664 -102.0828 90° East 501 577 35,000  Level Minneapolis Center
05:51PM 46.8664 -101.8417 90° East 497 572 35,000  Level Minneapolis Center
05:52PM 46.8647 -101.6650 91° East 496 571 35,000  Level Minneapolis Center
05:53PM 46.8606 -101.4628 92° East 497 572 35,000  Level Minneapolis Center
05:54PM 46.8333 -101.2217 99° East 500 575 35,000  Level Minneapolis Center
05:55PM 46.8114 -101.0236 99° East 497 572 35,000  Level Minneapolis Center
05:56PM 46.7903 -100.8211 99° East 501 577 35,000  Level Minneapolis Center
05:57PM 46.7683 -100.6222 99° East 497 572 35,000  Level Minneapolis Center
05:59PM 46.7447 -100.4228 100° East 497 572 35,000  Level Minneapolis Center
06:00PM 46.7214 -100.2269 100° East 493 567 35,000  Level Minneapolis Center
06:01PM 46.6975 -100.0219 100° East 496 571 35,000  Level Minneapolis Center
06:02PM 46.6686 -99.7836 100° East 499 574 35,000  Level Minneapolis Center
06:03PM 46.6442 -99.5806 100° East 506 582 35,000  Level Minneapolis Center
06:04PM 46.6194 -99.3781 100° East 510 587 35,000  Level Minneapolis Center
06:05PM 46.5950 -99.1794 100° East 506 582 35,000  Level Minneapolis Center
06:06PM 46.5686 -98.9792 101° East 506 582 35,000  Level Minneapolis Center
06:07PM 46.5431 -98.7794 100° East 507 583 35,000  Level Minneapolis Center
06:08PM 46.5097 -98.5356 101° East 507 583 35,000  Level Minneapolis Center
06:09PM 46.4842 -98.3425 101° East 505 581 35,000  Level Minneapolis Center
06:10PM 46.4578 -98.1428 101° East 507 583 35,000  Level Minneapolis Center
06:11PM 46.4294 -97.9428 102° East 509 586 35,000  Level Minneapolis Center
06:12PM 46.4011 -97.7433 102° East 509 586 35,000  Level Minneapolis Center
06:13PM 46.3728 -97.5428 102° East 511 588 35,000  Level Minneapolis Center
06:14PM 46.3386 -97.3011 101° East 514 592 35,000  Level Minneapolis Center
06:15PM 46.3083 -97.1011 102° East 514 592 35,000  Level Minneapolis Center
06:16PM 46.2794 -96.8983 102° East 517 595 35,000  Level Minneapolis Center
06:17PM 46.2494 -96.6986 102° East 513 590 35,000  Level Minneapolis Center
06:18PM 46.2183 -96.4969 102° East 516 594 35,000  Level Minneapolis Center
06:19PM 46.1819 -96.2567 102° East 514 592 35,000  Level Minneapolis Center
06:20PM 46.1486 -96.0478 103° East 512 589 35,000  Level Minneapolis Center
06:21PM 46.1167 -95.8458 103° East 516 594 35,000  Level Minneapolis Center
06:22PM 46.0847 -95.6458 103° East 514 592 35,000  Level Minneapolis Center
06:23PM 46.0531 -95.4450 103° East 515 593 35,000  Level Minneapolis Center
06:24PM 46.0200 -95.2433 103° East 517 595 35,000 -1,380 Level Minneapolis Center
06:25PM 45.9861 -95.0383 103° East 509 586 32,200 -2,580 Descending Minneapolis Center
06:26PM 45.9542 -94.8447 103° East 502 578 29,700 -2,460 Descending Minneapolis Center
06:27PM 45.9206 -94.6514 104° East 500 575 27,200 -2,700 Descending Minneapolis Center
06:28PM 45.8594 -94.4403 113° Southeast 484 557 24,200 -2,760 Descending Minneapolis Center
06:29PM 45.7975 -94.2756 118° Southeast 473 544 21,600 -2,520 Descending Minneapolis Center
06:31PM 45.7389 -94.1147 118° Southeast 463 533 19,100 -2,040 Descending Minneapolis Center
06:32PM 45.6808 -93.9628 119° Southeast 441 507 17,400 -1,560 Descending Minneapolis Center
06:33PM 45.6261 -93.8183 118° Southeast 417 480 15,900 -1,260 Descending Minneapolis Center
06:34PM 45.5717 -93.6747 118° Southeast 411 473 14,800 -1,140 Descending Minneapolis Center
06:35PM 45.4781 -93.5511 137° Southeast 393 452 13,600 -1,080 Descending Minneapolis Center
06:36PM 45.3800 -93.4981 159° South 381 438 12,600 -1,020 Descending Minneapolis Center
06:37PM 45.2844 -93.4467 159° South 368 423 11,600 -1,020 Descending Minneapolis Center
06:38PM 45.1975 -93.3997 159° South 334 384 10,600 -1,020 Descending Minneapolis Center
06:39PM 45.1175 -93.3578 160° South 310 357 9,600 -1,020 Descending Minneapolis Center
06:40PM 45.0378 -93.3144 159° South 307 353 8,600 -780 Descending Minneapolis Center
06:41PM 44.9850 -93.2261 130° Southeast 311 358 8,000 -1,020 Descending Minneapolis Center
06:42PM 44.9475 -93.0925 112° Southeast 302 348 6,500 -1,620 Descending Minneapolis Center
06:43PM 44.9025 -92.9992 124° Southeast 288 331 4,700 -1,800 Descending Minneapolis Center